Cedar Creek, Indiana
Current Conditions -  °F | °C
As of 6:55 PM on Sunday 23 Nov 2014 (Local Time) from KGWB Reporting Station
Light Rain Light Rain  
Wind Chill: 50°   Ceiling: 4300
Heat Index: 50°   Visibility: 7mi
Dew Point: 46°   Wind: 7mph
Humidity: 87%   Direction: 100°E
Pressure: 29.47"   Gusts: NA
Location:  41.3275°N, 85.1414°W
Report Text: KGWB 232355Z AUTO 10006KT 7SM -RA SCT032 BKN043 OVC070 10/08 A2947 RMK AO2 P0005
Loading
Personal Weather Stations






























Interactive Weather Map New forecast layout! Learn more

10-Day Weather Forecast

Advertisements
Track Severe Weather on mobile